PAL494 RPLL-RCTP
Flight info
| Callsign | PAL494 |
|---|---|
| Flight time | 1h 40m |
| Altitude | 35000 |
| Route | ALPAS2R ALPAS M646 POTIB Q14 TNN TNN1A |
| Aircraft | A320/M-SDE3FGHIRWY/LB1 |
Departure
| Time | 2026-05-06 14:47 |
|---|---|
| Airport | Ninoy Aquino International Airport (RPLL) |
Arrival
| Time | 2026-05-06 16:28 |
|---|---|
| Airport | Taiwan Taoyuan International Airport (RCTP) |
| Time | Latitude | Longitude | Altitude | Speed | Heading |
|---|---|---|---|---|---|
| 2026-05-06 14:19 | 14.50911 | 121.01411 | 69 ft | 0 kts | 331° |
| 2026-05-06 14:34 | 14.50906 | 121.01414 | 69 ft | 2 kts | 330° |
| 2026-05-06 14:34 | 14.50891 | 121.01423 | 59 ft | 2 kts | 330° |
| 2026-05-06 14:34 | 14.50877 | 121.01431 | 60 ft | 2 kts | 328° |
| 2026-05-06 14:35 | 14.50863 | 121.01440 | 59 ft | 2 kts | 326° |
| 2026-05-06 14:35 | 14.50850 | 121.01450 | 62 ft | 2 kts | 319° |
| 2026-05-06 14:35 | 14.50839 | 121.01463 | 62 ft | 2 kts | 283° |
| 2026-05-06 14:35 | 14.50840 | 121.01476 | 64 ft | 1 kts | 239° |
| 2026-05-06 14:36 | 14.50840 | 121.01477 | 65 ft | 0 kts | 239° |
| 2026-05-06 14:39 | 14.50838 | 121.01472 | 69 ft | 3 kts | 239° |
| 2026-05-06 14:39 | 14.50824 | 121.01449 | 62 ft | 5 kts | 240° |
| 2026-05-06 14:39 | 14.50805 | 121.01414 | 66 ft | 6 kts | 240° |
| 2026-05-06 14:39 | 14.50781 | 121.01370 | 63 ft | 5 kts | 240° |
| 2026-05-06 14:40 | 14.50760 | 121.01332 | 63 ft | 7 kts | 238° |
| 2026-05-06 14:40 | 14.50717 | 121.01313 | 69 ft | 7 kts | 173° |
| 2026-05-06 14:40 | 14.50667 | 121.01309 | 64 ft | 8 kts | 212° |
| 2026-05-06 14:40 | 14.50636 | 121.01260 | 67 ft | 9 kts | 240° |
| 2026-05-06 14:41 | 14.50602 | 121.01200 | 67 ft | 11 kts | 239° |
| 2026-05-06 14:41 | 14.50562 | 121.01128 | 64 ft | 12 kts | 240° |
| 2026-05-06 14:41 | 14.50516 | 121.01046 | 69 ft | 14 kts | 240° |
| 2026-05-06 14:41 | 14.50465 | 121.00954 | 64 ft | 15 kts | 240° |
| 2026-05-06 14:42 | 14.50408 | 121.00853 | 64 ft | 17 kts | 239° |
| 2026-05-06 14:42 | 14.50346 | 121.00738 | 62 ft | 19 kts | 242° |
| 2026-05-06 14:42 | 14.50282 | 121.00626 | 63 ft | 19 kts | 241° |
| 2026-05-06 14:42 | 14.50215 | 121.00505 | 60 ft | 20 kts | 241° |
| 2026-05-06 14:43 | 14.50144 | 121.00377 | 65 ft | 21 kts | 240° |
| 2026-05-06 14:43 | 14.50067 | 121.00241 | 64 ft | 23 kts | 239° |
| 2026-05-06 14:43 | 14.50005 | 121.00129 | 62 ft | 17 kts | 239° |
| 2026-05-06 14:43 | 14.49955 | 121.00040 | 69 ft | 5 kts | 242° |
| 2026-05-06 14:44 | 14.49937 | 121.00007 | 66 ft | 6 kts | 241° |
| 2026-05-06 14:44 | 14.49910 | 120.99969 | 66 ft | 7 kts | 217° |
| 2026-05-06 14:44 | 14.49864 | 120.99972 | 66 ft | 6 kts | 151° |
| 2026-05-06 14:45 | 14.49814 | 121.00056 | 69 ft | 9 kts | 64° |
| 2026-05-06 14:45 | 14.49820 | 121.00066 | 62 ft | 0 kts | 60° |
| 2026-05-06 14:46 | 14.49894 | 121.00204 | 65 ft | 52 kts | 61° |
| 2026-05-06 14:46 | 14.50168 | 121.00697 | 68 ft | 103 kts | 60° |
| 2026-05-06 14:46 | 14.50588 | 121.01457 | 67 ft | 139 kts | 60° |
| 2026-05-06 14:46 | 14.51127 | 121.02399 | 99 ft | 162 kts | 59° |
| 2026-05-06 14:47 | 14.51730 | 121.03412 | 438 ft | 168 kts | 60° |
| 2026-05-06 14:47 | 14.52346 | 121.04461 | 1162 ft | 171 kts | 59° |
| 2026-05-06 14:47 | 14.52734 | 121.05158 | 1732 ft | 169 kts | 60° |
| 2026-05-06 14:47 | 14.53503 | 121.06568 | 2273 ft | 175 kts | 61° |
| 2026-05-06 14:48 | 14.53911 | 121.07314 | 2471 ft | 185 kts | 61° |
| 2026-05-06 14:48 | 14.54570 | 121.08528 | 2716 ft | 203 kts | 61° |
| 2026-05-06 14:48 | 14.55405 | 121.09777 | 2989 ft | 222 kts | 41° |
| 2026-05-06 14:48 | 14.56834 | 121.10480 | 3416 ft | 239 kts | 9° |
| 2026-05-06 14:49 | 14.58530 | 121.10299 | 3896 ft | 256 kts | 339° |
| 2026-05-06 14:49 | 14.60139 | 121.09376 | 4379 ft | 273 kts | 328° |
| 2026-05-06 14:49 | 14.61734 | 121.08274 | 5048 ft | 278 kts | 327° |
| 2026-05-06 14:49 | 14.63345 | 121.07140 | 5790 ft | 281 kts | 327° |
| 2026-05-06 14:50 | 14.64970 | 121.05993 | 6539 ft | 284 kts | 327° |
| 2026-05-06 14:50 | 14.66608 | 121.04841 | 7237 ft | 287 kts | 327° |
| 2026-05-06 14:50 | 14.68246 | 121.03677 | 7911 ft | 290 kts | 327° |
| 2026-05-06 14:50 | 14.69909 | 121.02478 | 8588 ft | 294 kts | 327° |
| 2026-05-06 14:51 | 14.71586 | 121.01254 | 9254 ft | 297 kts | 327° |
| 2026-05-06 14:51 | 14.73282 | 121.00003 | 9906 ft | 301 kts | 327° |
| 2026-05-06 14:51 | 14.75005 | 120.98726 | 10316 ft | 312 kts | 327° |
| 2026-05-06 14:51 | 14.76820 | 120.97391 | 10563 ft | 328 kts | 327° |
| 2026-05-06 14:52 | 14.78729 | 120.95992 | 10785 ft | 344 kts | 327° |
| 2026-05-06 14:52 | 14.80734 | 120.94595 | 11178 ft | 349 kts | 334° |
| 2026-05-06 14:52 | 14.82999 | 120.93709 | 11705 ft | 349 kts | 345° |
| 2026-05-06 14:52 | 14.85344 | 120.92982 | 12212 ft | 353 kts | 345° |
| 2026-05-06 14:53 | 14.87707 | 120.92255 | 12732 ft | 356 kts | 345° |
| 2026-05-06 14:53 | 14.90095 | 120.91523 | 13236 ft | 360 kts | 345° |
| 2026-05-06 14:53 | 14.92501 | 120.90782 | 13735 ft | 363 kts | 345° |
| 2026-05-06 14:53 | 14.94938 | 120.90027 | 14173 ft | 366 kts | 345° |
| 2026-05-06 14:54 | 14.97380 | 120.89273 | 14631 ft | 368 kts | 345° |
| 2026-05-06 14:54 | 14.99843 | 120.88510 | 15097 ft | 370 kts | 344° |
| 2026-05-06 14:54 | 15.02313 | 120.87743 | 15564 ft | 372 kts | 344° |
| 2026-05-06 14:54 | 15.04800 | 120.86972 | 16033 ft | 374 kts | 344° |
| 2026-05-06 14:55 | 15.07302 | 120.86198 | 16498 ft | 376 kts | 344° |
| 2026-05-06 14:55 | 15.09816 | 120.85420 | 16955 ft | 378 kts | 344° |
| 2026-05-06 14:55 | 15.12344 | 120.84638 | 17413 ft | 381 kts | 344° |
| 2026-05-06 14:55 | 15.14891 | 120.83849 | 17868 ft | 383 kts | 343° |
| 2026-05-06 14:56 | 15.17417 | 120.83068 | 18302 ft | 385 kts | 343° |
| 2026-05-06 14:56 | 15.19994 | 120.82273 | 18696 ft | 388 kts | 343° |
| 2026-05-06 14:56 | 15.22584 | 120.81474 | 19096 ft | 390 kts | 343° |
| 2026-05-06 14:56 | 15.25228 | 120.80658 | 19502 ft | 392 kts | 343° |
| 2026-05-06 14:57 | 15.27812 | 120.79858 | 19907 ft | 394 kts | 343° |
| 2026-05-06 14:57 | 15.30450 | 120.79040 | 20319 ft | 396 kts | 343° |
| 2026-05-06 14:57 | 15.33096 | 120.78219 | 20730 ft | 398 kts | 343° |
| 2026-05-06 14:57 | 15.35760 | 120.77394 | 21127 ft | 401 kts | 343° |
| 2026-05-06 14:58 | 15.38440 | 120.76562 | 21532 ft | 403 kts | 343° |
| 2026-05-06 14:58 | 15.41132 | 120.75726 | 21929 ft | 405 kts | 343° |
| 2026-05-06 14:58 | 15.43844 | 120.74881 | 22323 ft | 408 kts | 343° |
| 2026-05-06 14:58 | 15.46570 | 120.74032 | 22705 ft | 410 kts | 343° |
| 2026-05-06 14:59 | 15.49316 | 120.73178 | 23085 ft | 413 kts | 343° |
| 2026-05-06 14:59 | 15.52072 | 120.72325 | 23453 ft | 415 kts | 343° |
| 2026-05-06 14:59 | 15.54846 | 120.71468 | 23761 ft | 417 kts | 343° |
| 2026-05-06 14:59 | 15.57637 | 120.70603 | 24058 ft | 420 kts | 343° |
| 2026-05-06 15:00 | 15.60441 | 120.69731 | 24360 ft | 422 kts | 343° |
| 2026-05-06 15:00 | 15.63258 | 120.68856 | 24654 ft | 424 kts | 343° |
| 2026-05-06 15:00 | 15.66090 | 120.67975 | 24949 ft | 425 kts | 342° |
| 2026-05-06 15:00 | 15.68931 | 120.67090 | 25249 ft | 427 kts | 342° |
| 2026-05-06 15:01 | 15.71790 | 120.66210 | 25545 ft | 429 kts | 343° |
| 2026-05-06 15:01 | 15.74625 | 120.65354 | 25824 ft | 431 kts | 343° |
| 2026-05-06 15:01 | 15.77517 | 120.64492 | 26106 ft | 433 kts | 343° |
| 2026-05-06 15:01 | 15.80419 | 120.63633 | 26386 ft | 435 kts | 343° |
| 2026-05-06 15:02 | 15.83335 | 120.62769 | 26655 ft | 436 kts | 343° |
| 2026-05-06 15:02 | 15.86260 | 120.61897 | 26921 ft | 438 kts | 343° |
| 2026-05-06 15:02 | 15.89189 | 120.61019 | 27191 ft | 440 kts | 343° |
| 2026-05-06 15:02 | 15.92131 | 120.60138 | 27453 ft | 441 kts | 343° |
| 2026-05-06 15:03 | 15.95087 | 120.59252 | 27718 ft | 443 kts | 343° |
| 2026-05-06 15:03 | 15.98051 | 120.58361 | 27978 ft | 444 kts | 343° |
| 2026-05-06 15:03 | 16.01029 | 120.57464 | 28239 ft | 446 kts | 343° |
| 2026-05-06 15:03 | 16.04012 | 120.56565 | 28509 ft | 448 kts | 343° |
| 2026-05-06 15:04 | 16.07011 | 120.55663 | 28781 ft | 449 kts | 343° |
| 2026-05-06 15:04 | 16.10025 | 120.54756 | 29055 ft | 451 kts | 343° |
| 2026-05-06 15:04 | 16.13043 | 120.53849 | 29323 ft | 452 kts | 343° |
| 2026-05-06 15:04 | 16.16074 | 120.52939 | 29590 ft | 454 kts | 343° |
| 2026-05-06 15:05 | 16.19075 | 120.52037 | 29851 ft | 456 kts | 343° |
| 2026-05-06 15:05 | 16.22129 | 120.51115 | 30099 ft | 457 kts | 342° |
| 2026-05-06 15:05 | 16.25185 | 120.50192 | 30357 ft | 458 kts | 342° |
| 2026-05-06 15:05 | 16.28247 | 120.49269 | 30697 ft | 456 kts | 343° |
| 2026-05-06 15:06 | 16.31289 | 120.48355 | 31049 ft | 455 kts | 343° |
| 2026-05-06 15:06 | 16.34329 | 120.47443 | 31364 ft | 454 kts | 343° |
| 2026-05-06 15:06 | 16.37356 | 120.46534 | 31698 ft | 453 kts | 342° |
| 2026-05-06 15:06 | 16.40385 | 120.45622 | 32019 ft | 452 kts | 342° |
| 2026-05-06 15:07 | 16.43398 | 120.44712 | 32344 ft | 451 kts | 342° |
| 2026-05-06 15:07 | 16.46413 | 120.43802 | 32672 ft | 450 kts | 342° |
| 2026-05-06 15:07 | 16.49417 | 120.42894 | 33006 ft | 449 kts | 342° |
| 2026-05-06 15:07 | 16.52413 | 120.41988 | 33334 ft | 448 kts | 342° |
| 2026-05-06 15:08 | 16.55412 | 120.41078 | 33657 ft | 448 kts | 342° |
| 2026-05-06 15:08 | 16.58399 | 120.40171 | 33958 ft | 447 kts | 342° |
| 2026-05-06 15:08 | 16.61382 | 120.39267 | 34219 ft | 446 kts | 342° |
| 2026-05-06 15:08 | 16.64362 | 120.38365 | 34470 ft | 446 kts | 342° |
| 2026-05-06 15:09 | 16.67336 | 120.37465 | 34711 ft | 445 kts | 342° |
| 2026-05-06 15:09 | 16.70324 | 120.36596 | 34893 ft | 445 kts | 347° |
| 2026-05-06 15:09 | 16.73388 | 120.36134 | 34937 ft | 446 kts | 356° |
| 2026-05-06 15:10 | 16.79596 | 120.36583 | 34949 ft | 448 kts | 5° |
| 2026-05-06 15:10 | 16.85795 | 120.37330 | 34948 ft | 448 kts | 5° |
| 2026-05-06 15:11 | 16.91998 | 120.38057 | 34948 ft | 448 kts | 5° |
| 2026-05-06 15:11 | 16.98163 | 120.38770 | 34944 ft | 448 kts | 5° |
| 2026-05-06 15:12 | 17.04367 | 120.39491 | 34948 ft | 449 kts | 5° |
| 2026-05-06 15:12 | 17.10573 | 120.40222 | 34949 ft | 449 kts | 5° |
| 2026-05-06 15:13 | 17.16779 | 120.40957 | 34944 ft | 449 kts | 5° |
| 2026-05-06 15:13 | 17.22976 | 120.41685 | 34939 ft | 448 kts | 5° |
| 2026-05-06 15:14 | 17.29181 | 120.42406 | 34928 ft | 449 kts | 5° |
| 2026-05-06 15:14 | 17.35389 | 120.43130 | 34925 ft | 449 kts | 5° |
| 2026-05-06 15:15 | 17.41593 | 120.43859 | 34925 ft | 449 kts | 5° |
| 2026-05-06 15:15 | 17.47800 | 120.44598 | 34928 ft | 449 kts | 5° |
| 2026-05-06 15:16 | 17.53975 | 120.45339 | 34929 ft | 449 kts | 5° |
| 2026-05-06 15:16 | 17.60177 | 120.46079 | 34923 ft | 449 kts | 5° |
| 2026-05-06 15:17 | 17.66389 | 120.46809 | 34922 ft | 449 kts | 5° |
| 2026-05-06 15:17 | 17.72596 | 120.47543 | 34929 ft | 449 kts | 5° |
| 2026-05-06 15:18 | 17.78798 | 120.48279 | 34927 ft | 449 kts | 5° |
| 2026-05-06 15:18 | 17.85002 | 120.49016 | 34929 ft | 448 kts | 5° |
| 2026-05-06 15:19 | 17.91191 | 120.49751 | 34929 ft | 448 kts | 5° |
| 2026-05-06 15:19 | 17.97385 | 120.50486 | 34929 ft | 447 kts | 4° |
| 2026-05-06 15:20 | 18.03531 | 120.51207 | 34932 ft | 447 kts | 4° |
| 2026-05-06 15:20 | 18.09724 | 120.51938 | 34930 ft | 447 kts | 4° |
| 2026-05-06 15:21 | 18.15901 | 120.52665 | 34932 ft | 447 kts | 4° |
| 2026-05-06 15:21 | 18.22086 | 120.53329 | 34930 ft | 446 kts | 2° |
| 2026-05-06 15:22 | 18.28267 | 120.53804 | 34931 ft | 446 kts | 1° |
| 2026-05-06 15:22 | 18.34452 | 120.54236 | 34930 ft | 445 kts | 2° |
| 2026-05-06 15:23 | 18.40638 | 120.54710 | 34931 ft | 445 kts | 2° |
| 2026-05-06 15:23 | 18.46815 | 120.55211 | 34929 ft | 445 kts | 2° |
| 2026-05-06 15:24 | 18.52958 | 120.55714 | 34928 ft | 445 kts | 2° |
| 2026-05-06 15:24 | 18.59135 | 120.56219 | 34931 ft | 445 kts | 2° |
| 2026-05-06 15:25 | 18.65308 | 120.56707 | 34935 ft | 444 kts | 2° |
| 2026-05-06 15:25 | 18.71469 | 120.57197 | 34936 ft | 444 kts | 2° |
| 2026-05-06 15:26 | 18.77639 | 120.57694 | 34935 ft | 444 kts | 2° |
| 2026-05-06 15:26 | 18.83804 | 120.58195 | 34944 ft | 444 kts | 2° |
| 2026-05-06 15:27 | 18.89972 | 120.58697 | 34944 ft | 444 kts | 2° |
| 2026-05-06 15:27 | 18.96093 | 120.59189 | 34949 ft | 444 kts | 2° |
| 2026-05-06 15:28 | 19.02253 | 120.59684 | 34954 ft | 444 kts | 2° |
| 2026-05-06 15:28 | 19.08407 | 120.60175 | 34953 ft | 444 kts | 2° |
| 2026-05-06 15:29 | 19.14564 | 120.60678 | 34953 ft | 444 kts | 2° |
| 2026-05-06 15:29 | 19.20725 | 120.61177 | 34954 ft | 444 kts | 2° |
| 2026-05-06 15:30 | 19.26882 | 120.61670 | 34959 ft | 443 kts | 1° |
| 2026-05-06 15:30 | 19.33032 | 120.62161 | 34960 ft | 443 kts | 1° |
| 2026-05-06 15:31 | 19.39191 | 120.62653 | 34962 ft | 444 kts | 1° |
| 2026-05-06 15:31 | 19.45345 | 120.63147 | 34959 ft | 444 kts | 2° |
| 2026-05-06 15:32 | 19.54585 | 120.63902 | 34961 ft | 444 kts | 1° |
| 2026-05-06 15:32 | 19.60694 | 120.64396 | 34962 ft | 444 kts | 1° |
| 2026-05-06 15:33 | 19.66854 | 120.64901 | 34964 ft | 444 kts | 2° |
| 2026-05-06 15:33 | 19.73011 | 120.65409 | 34967 ft | 444 kts | 1° |
| 2026-05-06 15:34 | 19.79172 | 120.65907 | 34964 ft | 444 kts | 1° |
| 2026-05-06 15:34 | 19.85336 | 120.66408 | 34967 ft | 444 kts | 1° |
| 2026-05-06 15:35 | 19.91502 | 120.66905 | 34967 ft | 444 kts | 1° |
| 2026-05-06 15:35 | 19.97632 | 120.67408 | 34967 ft | 444 kts | 1° |
| 2026-05-06 15:36 | 20.03797 | 120.67918 | 34968 ft | 444 kts | 1° |
| 2026-05-06 15:36 | 20.09961 | 120.68429 | 34972 ft | 444 kts | 1° |
| 2026-05-06 15:37 | 20.16130 | 120.68931 | 34975 ft | 444 kts | 1° |
| 2026-05-06 15:37 | 20.22298 | 120.69432 | 34977 ft | 444 kts | 1° |
| 2026-05-06 15:38 | 20.28413 | 120.69929 | 34976 ft | 443 kts | 1° |
| 2026-05-06 15:38 | 20.34565 | 120.70427 | 34977 ft | 444 kts | 1° |
| 2026-05-06 15:39 | 20.40723 | 120.70932 | 34974 ft | 444 kts | 1° |
| 2026-05-06 15:39 | 20.45878 | 120.71355 | 34976 ft | 443 kts | 1° |
| 2026-05-06 15:40 | 20.52034 | 120.71866 | 34979 ft | 443 kts | 1° |
| 2026-05-06 15:40 | 20.58147 | 120.72377 | 34985 ft | 443 kts | 1° |
| 2026-05-06 15:41 | 20.64295 | 120.72889 | 34987 ft | 443 kts | 1° |
| 2026-05-06 15:41 | 20.70443 | 120.73395 | 34987 ft | 443 kts | 1° |
| 2026-05-06 15:42 | 20.76594 | 120.73894 | 34988 ft | 443 kts | 1° |
| 2026-05-06 15:42 | 20.82733 | 120.74401 | 34985 ft | 443 kts | 1° |
| 2026-05-06 15:43 | 20.88881 | 120.74918 | 34991 ft | 442 kts | 1° |
| 2026-05-06 15:43 | 20.95023 | 120.75420 | 34989 ft | 442 kts | 1° |
| 2026-05-06 15:44 | 21.01136 | 120.75463 | 34985 ft | 437 kts | 348° |
| 2026-05-06 15:44 | 21.07043 | 120.74040 | 34980 ft | 435 kts | 343° |
| 2026-05-06 15:45 | 21.12889 | 120.72547 | 34985 ft | 435 kts | 343° |
| 2026-05-06 15:45 | 21.18778 | 120.71051 | 34990 ft | 434 kts | 343° |
| 2026-05-06 15:46 | 21.24661 | 120.69548 | 34991 ft | 434 kts | 343° |
| 2026-05-06 15:46 | 21.30551 | 120.68041 | 34992 ft | 434 kts | 343° |
| 2026-05-06 15:47 | 21.36421 | 120.66545 | 34994 ft | 434 kts | 343° |
| 2026-05-06 15:47 | 21.42292 | 120.65048 | 34995 ft | 433 kts | 343° |
| 2026-05-06 15:48 | 21.48155 | 120.63541 | 34997 ft | 433 kts | 343° |
| 2026-05-06 15:48 | 21.53973 | 120.62042 | 34998 ft | 433 kts | 343° |
| 2026-05-06 15:49 | 21.59829 | 120.60540 | 34994 ft | 433 kts | 343° |
| 2026-05-06 15:49 | 21.65687 | 120.59032 | 34996 ft | 433 kts | 343° |
| 2026-05-06 15:50 | 21.71546 | 120.57521 | 34996 ft | 432 kts | 343° |
| 2026-05-06 15:50 | 21.77394 | 120.56011 | 34998 ft | 432 kts | 343° |
| 2026-05-06 15:51 | 21.83236 | 120.54503 | 34997 ft | 432 kts | 343° |
| 2026-05-06 15:51 | 21.89081 | 120.52997 | 34998 ft | 431 kts | 343° |
| 2026-05-06 15:52 | 21.94919 | 120.51499 | 34998 ft | 431 kts | 343° |
| 2026-05-06 15:52 | 22.00754 | 120.49995 | 34998 ft | 431 kts | 343° |
| 2026-05-06 15:53 | 22.06549 | 120.48498 | 34995 ft | 431 kts | 343° |
| 2026-05-06 15:53 | 22.12381 | 120.46986 | 34993 ft | 430 kts | 343° |
| 2026-05-06 15:54 | 22.18203 | 120.45481 | 34992 ft | 430 kts | 343° |
| 2026-05-06 15:54 | 22.24026 | 120.43977 | 34989 ft | 430 kts | 343° |
| 2026-05-06 15:55 | 22.29836 | 120.42469 | 34992 ft | 430 kts | 343° |
| 2026-05-06 15:55 | 22.35657 | 120.40957 | 34992 ft | 429 kts | 343° |
| 2026-05-06 15:56 | 22.41469 | 120.39445 | 34990 ft | 429 kts | 343° |
| 2026-05-06 15:56 | 22.47276 | 120.37935 | 34994 ft | 429 kts | 343° |
| 2026-05-06 15:57 | 22.53082 | 120.36423 | 34993 ft | 429 kts | 343° |
| 2026-05-06 15:57 | 22.58885 | 120.34914 | 34991 ft | 429 kts | 343° |
| 2026-05-06 15:58 | 22.64654 | 120.33416 | 34997 ft | 429 kts | 343° |
| 2026-05-06 15:58 | 22.70457 | 120.31904 | 34993 ft | 428 kts | 343° |
| 2026-05-06 15:59 | 22.76246 | 120.30390 | 34991 ft | 428 kts | 343° |
| 2026-05-06 15:59 | 22.82037 | 120.28873 | 35026 ft | 428 kts | 343° |
| 2026-05-06 16:00 | 22.87830 | 120.27360 | 35032 ft | 428 kts | 343° |
| 2026-05-06 16:00 | 22.93609 | 120.25842 | 35030 ft | 427 kts | 343° |
| 2026-05-06 16:01 | 22.99392 | 120.24325 | 35028 ft | 427 kts | 343° |
| 2026-05-06 16:01 | 23.05167 | 120.22814 | 35033 ft | 427 kts | 343° |
| 2026-05-06 16:02 | 23.10947 | 120.21301 | 35012 ft | 427 kts | 344° |
| 2026-05-06 16:02 | 23.16910 | 120.21006 | 35006 ft | 436 kts | 3° |
| 2026-05-06 16:03 | 23.22945 | 120.21755 | 34998 ft | 436 kts | 2° |
| 2026-05-06 16:03 | 23.28948 | 120.22466 | 34991 ft | 436 kts | 2° |
| 2026-05-06 16:04 | 23.34986 | 120.23178 | 34342 ft | 436 kts | 2° |
| 2026-05-06 16:04 | 23.37994 | 120.23536 | 33848 ft | 433 kts | 2° |
| 2026-05-06 16:04 | 23.40980 | 120.23893 | 33361 ft | 430 kts | 2° |
| 2026-05-06 16:05 | 23.43940 | 120.24247 | 32889 ft | 426 kts | 2° |
| 2026-05-06 16:05 | 23.46866 | 120.24595 | 32420 ft | 422 kts | 2° |
| 2026-05-06 16:05 | 23.49777 | 120.24941 | 31967 ft | 419 kts | 2° |
| 2026-05-06 16:05 | 23.52662 | 120.25285 | 31515 ft | 416 kts | 2° |
| 2026-05-06 16:06 | 23.55532 | 120.25627 | 31067 ft | 413 kts | 2° |
| 2026-05-06 16:06 | 23.58383 | 120.25967 | 30644 ft | 411 kts | 2° |
| 2026-05-06 16:06 | 23.61225 | 120.26308 | 30203 ft | 410 kts | 2° |
| 2026-05-06 16:06 | 23.64049 | 120.26649 | 29747 ft | 408 kts | 3° |
| 2026-05-06 16:07 | 23.66858 | 120.26990 | 29317 ft | 405 kts | 3° |
| 2026-05-06 16:07 | 23.69649 | 120.27342 | 28919 ft | 403 kts | 6° |
| 2026-05-06 16:07 | 23.72370 | 120.28069 | 28527 ft | 404 kts | 14° |
| 2026-05-06 16:07 | 23.75041 | 120.28999 | 28114 ft | 402 kts | 14° |
| 2026-05-06 16:08 | 23.77691 | 120.29919 | 27703 ft | 400 kts | 14° |
| 2026-05-06 16:08 | 23.80345 | 120.30840 | 27287 ft | 398 kts | 14° |
| 2026-05-06 16:08 | 23.82980 | 120.31754 | 26882 ft | 396 kts | 14° |
| 2026-05-06 16:08 | 23.85602 | 120.32661 | 26473 ft | 394 kts | 14° |
| 2026-05-06 16:09 | 23.88214 | 120.33562 | 26046 ft | 393 kts | 14° |
| 2026-05-06 16:09 | 23.90819 | 120.34462 | 25622 ft | 392 kts | 14° |
| 2026-05-06 16:09 | 23.93416 | 120.35361 | 25191 ft | 391 kts | 14° |
| 2026-05-06 16:09 | 23.96011 | 120.36259 | 24759 ft | 390 kts | 14° |
| 2026-05-06 16:10 | 23.98567 | 120.37146 | 24320 ft | 390 kts | 14° |
| 2026-05-06 16:10 | 24.01186 | 120.38057 | 23872 ft | 390 kts | 15° |
| 2026-05-06 16:10 | 24.03735 | 120.38945 | 23401 ft | 390 kts | 15° |
| 2026-05-06 16:10 | 24.06314 | 120.39842 | 22938 ft | 388 kts | 15° |
| 2026-05-06 16:11 | 24.08878 | 120.40733 | 22484 ft | 385 kts | 15° |
| 2026-05-06 16:11 | 24.11427 | 120.41617 | 22046 ft | 383 kts | 15° |
| 2026-05-06 16:11 | 24.13930 | 120.42482 | 21608 ft | 381 kts | 15° |
| 2026-05-06 16:11 | 24.16449 | 120.43354 | 21173 ft | 379 kts | 15° |
| 2026-05-06 16:12 | 24.18954 | 120.44224 | 20731 ft | 377 kts | 15° |
| 2026-05-06 16:12 | 24.21451 | 120.45094 | 20288 ft | 375 kts | 15° |
| 2026-05-06 16:12 | 24.23931 | 120.45959 | 19854 ft | 374 kts | 15° |
| 2026-05-06 16:12 | 24.26415 | 120.46825 | 19416 ft | 372 kts | 15° |
| 2026-05-06 16:13 | 24.28879 | 120.47683 | 18980 ft | 371 kts | 15° |
| 2026-05-06 16:13 | 24.31335 | 120.48542 | 18543 ft | 370 kts | 15° |
| 2026-05-06 16:13 | 24.33787 | 120.49402 | 18077 ft | 369 kts | 15° |
| 2026-05-06 16:13 | 24.36188 | 120.50242 | 17639 ft | 366 kts | 15° |
| 2026-05-06 16:14 | 24.38610 | 120.51089 | 17213 ft | 363 kts | 15° |
| 2026-05-06 16:14 | 24.41008 | 120.51924 | 16789 ft | 360 kts | 15° |
| 2026-05-06 16:14 | 24.43388 | 120.52754 | 16364 ft | 358 kts | 15° |
| 2026-05-06 16:14 | 24.45750 | 120.53578 | 15958 ft | 355 kts | 15° |
| 2026-05-06 16:15 | 24.48100 | 120.54398 | 15539 ft | 353 kts | 15° |
| 2026-05-06 16:15 | 24.50434 | 120.55213 | 15132 ft | 351 kts | 15° |
| 2026-05-06 16:15 | 24.52757 | 120.56024 | 14725 ft | 349 kts | 15° |
| 2026-05-06 16:15 | 24.55073 | 120.56834 | 14318 ft | 348 kts | 16° |
| 2026-05-06 16:16 | 24.57375 | 120.57640 | 13915 ft | 346 kts | 16° |
| 2026-05-06 16:16 | 24.59666 | 120.58442 | 13477 ft | 345 kts | 16° |
| 2026-05-06 16:16 | 24.61949 | 120.59241 | 13066 ft | 342 kts | 16° |
| 2026-05-06 16:16 | 24.64208 | 120.60034 | 12665 ft | 340 kts | 15° |
| 2026-05-06 16:17 | 24.66408 | 120.60862 | 12267 ft | 338 kts | 22° |
| 2026-05-06 16:17 | 24.68428 | 120.62176 | 11889 ft | 338 kts | 37° |
| 2026-05-06 16:17 | 24.70185 | 120.63882 | 11502 ft | 336 kts | 41° |
| 2026-05-06 16:17 | 24.71921 | 120.65595 | 11110 ft | 334 kts | 40° |
| 2026-05-06 16:18 | 24.73653 | 120.67296 | 10723 ft | 333 kts | 40° |
| 2026-05-06 16:18 | 24.75372 | 120.68979 | 10393 ft | 329 kts | 40° |
| 2026-05-06 16:18 | 24.77080 | 120.70649 | 10064 ft | 326 kts | 40° |
| 2026-05-06 16:18 | 24.78757 | 120.72293 | 9825 ft | 320 kts | 40° |
| 2026-05-06 16:19 | 24.80403 | 120.73912 | 9513 ft | 316 kts | 40° |
| 2026-05-06 16:19 | 24.82031 | 120.75514 | 9154 ft | 313 kts | 40° |
| 2026-05-06 16:19 | 24.83653 | 120.77110 | 8795 ft | 311 kts | 40° |
| 2026-05-06 16:19 | 24.85263 | 120.78695 | 8438 ft | 309 kts | 40° |
| 2026-05-06 16:20 | 24.86865 | 120.80272 | 8085 ft | 308 kts | 41° |
| 2026-05-06 16:20 | 24.88454 | 120.81840 | 7740 ft | 306 kts | 41° |
| 2026-05-06 16:20 | 24.90010 | 120.83427 | 7398 ft | 304 kts | 47° |
| 2026-05-06 16:20 | 24.91168 | 120.85362 | 7049 ft | 302 kts | 67° |
| 2026-05-06 16:21 | 24.91714 | 120.87572 | 6718 ft | 298 kts | 86° |
| 2026-05-06 16:21 | 24.91689 | 120.89831 | 6392 ft | 295 kts | 95° |
| 2026-05-06 16:21 | 24.91573 | 120.92081 | 6027 ft | 292 kts | 95° |
| 2026-05-06 16:21 | 24.91472 | 120.94302 | 5443 ft | 288 kts | 94° |
| 2026-05-06 16:22 | 24.91379 | 120.96452 | 5194 ft | 272 kts | 94° |
| 2026-05-06 16:22 | 24.91291 | 120.98461 | 5070 ft | 253 kts | 94° |
| 2026-05-06 16:22 | 24.91334 | 121.00336 | 4777 ft | 240 kts | 78° |
| 2026-05-06 16:22 | 24.91924 | 121.02025 | 4500 ft | 237 kts | 57° |
| 2026-05-06 16:23 | 24.92943 | 121.03409 | 4202 ft | 232 kts | 48° |
| 2026-05-06 16:23 | 24.94002 | 121.04746 | 3903 ft | 231 kts | 49° |
| 2026-05-06 16:23 | 24.95053 | 121.06077 | 3619 ft | 229 kts | 49° |
| 2026-05-06 16:23 | 24.96083 | 121.07384 | 3327 ft | 228 kts | 49° |
| 2026-05-06 16:24 | 24.97118 | 121.08694 | 3035 ft | 225 kts | 49° |
| 2026-05-06 16:24 | 24.98140 | 121.09990 | 2736 ft | 222 kts | 49° |
| 2026-05-06 16:24 | 24.99144 | 121.11263 | 2450 ft | 216 kts | 49° |
| 2026-05-06 16:24 | 25.00102 | 121.12477 | 2176 ft | 203 kts | 49° |
| 2026-05-06 16:25 | 25.01002 | 121.13618 | 1934 ft | 191 kts | 50° |
| 2026-05-06 16:25 | 25.01838 | 121.14677 | 1690 ft | 173 kts | 50° |
| 2026-05-06 16:25 | 25.02343 | 121.15318 | 1544 ft | 162 kts | 50° |
| 2026-05-06 16:25 | 25.03051 | 121.16216 | 1345 ft | 148 kts | 50° |
| 2026-05-06 16:26 | 25.03929 | 121.17330 | 1104 ft | 143 kts | 49° |
| 2026-05-06 16:26 | 25.04360 | 121.17882 | 989 ft | 143 kts | 50° |
| 2026-05-06 16:26 | 25.05209 | 121.18986 | 742 ft | 142 kts | 49° |
| 2026-05-06 16:26 | 25.05859 | 121.19804 | 565 ft | 142 kts | 48° |
| 2026-05-06 16:27 | 25.06291 | 121.20346 | 416 ft | 141 kts | 49° |
| 2026-05-06 16:27 | 25.06934 | 121.21162 | 221 ft | 141 kts | 48° |
| 2026-05-06 16:27 | 25.07578 | 121.21975 | 104 ft | 141 kts | 47° |
| 2026-05-06 16:27 | 25.08175 | 121.22719 | 74 ft | 109 kts | 50° |
| 2026-05-06 16:28 | 25.08524 | 121.23161 | 78 ft | 41 kts | 50° |
| 2026-05-06 16:28 | 25.08636 | 121.23297 | 77 ft | 23 kts | 53° |
| 2026-05-06 16:28 | 25.08690 | 121.23430 | 74 ft | 16 kts | 71° |
| 2026-05-06 16:28 | 25.08702 | 121.23471 | 70 ft | 6 kts | 72° |
| 2026-05-06 16:29 | 25.08715 | 121.23527 | 66 ft | 9 kts | 79° |
| 2026-05-06 16:29 | 25.08725 | 121.23586 | 75 ft | 0 kts | 79° |
| 2026-05-06 16:31 | 25.08725 | 121.23587 | 75 ft | 0 kts | 79° |
| 2026-05-06 16:32 | 25.08727 | 121.23599 | 72 ft | 3 kts | 79° |
| 2026-05-06 16:32 | 25.08728 | 121.23631 | 75 ft | 5 kts | 94° |
| 2026-05-06 16:32 | 25.08709 | 121.23667 | 68 ft | 6 kts | 144° |
| 2026-05-06 16:32 | 25.08668 | 121.23664 | 74 ft | 6 kts | 207° |
| 2026-05-06 16:33 | 25.08632 | 121.23626 | 76 ft | 8 kts | 229° |
| 2026-05-06 16:33 | 25.08591 | 121.23574 | 70 ft | 10 kts | 229° |
| 2026-05-06 16:33 | 25.08543 | 121.23512 | 73 ft | 8 kts | 229° |
| 2026-05-06 16:34 | 25.08441 | 121.23496 | 75 ft | 9 kts | 122° |
| 2026-05-06 16:34 | 25.08440 | 121.23551 | 78 ft | 7 kts | 82° |
| 2026-05-06 16:34 | 25.08418 | 121.23598 | 83 ft | 7 kts | 141° |
| 2026-05-06 16:34 | 25.08385 | 121.23601 | 81 ft | 5 kts | 204° |